sensor_id;sensor_type;location;lat;lon;timestamp;P1;durP1;ratioP1;P2;durP2;ratioP2
47529;SDS011;33272;51.922;7.730;2022-10-22T00:01:05;7.20;;;6.50;;
47529;SDS011;33272;51.922;7.730;2022-10-22T00:03:32;8.97;;;6.83;;
47529;SDS011;33272;51.922;7.730;2022-10-22T00:05:59;9.27;;;7.87;;
47529;SDS011;33272;51.922;7.730;2022-10-22T00:08:27;9.00;;;7.27;;
47529;SDS011;33272;51.922;7.730;2022-10-22T00:10:55;9.77;;;7.43;;
47529;SDS011;33272;51.922;7.730;2022-10-22T00:13:22;9.33;;;7.33;;
47529;SDS011;33272;51.922;7.730;2022-10-22T00:15:49;7.73;;;6.83;;
47529;SDS011;33272;51.922;7.730;2022-10-22T00:18:16;7.37;;;6.13;;
47529;SDS011;33272;51.922;7.730;2022-10-22T00:20:43;9.33;;;6.50;;
47529;SDS011;33272;51.922;7.730;2022-10-22T00:23:10;7.17;;;5.57;;
47529;SDS011;33272;51.922;7.730;2022-10-22T00:25:37;6.63;;;5.83;;
47529;SDS011;33272;51.922;7.730;2022-10-22T00:28:06;6.03;;;5.10;;
47529;SDS011;33272;51.922;7.730;2022-10-22T00:30:33;6.40;;;4.63;;
47529;SDS011;33272;51.922;7.730;2022-10-22T00:33:00;4.63;;;4.23;;
47529;SDS011;33272;51.922;7.730;2022-10-22T00:35:27;4.37;;;3.97;;
47529;SDS011;33272;51.922;7.730;2022-10-22T00:37:54;4.47;;;4.03;;
47529;SDS011;33272;51.922;7.730;2022-10-22T00:40:21;4.67;;;4.17;;
47529;SDS011;33272;51.922;7.730;2022-10-22T00:42:48;4.43;;;3.97;;
47529;SDS011;33272;51.922;7.730;2022-10-22T00:45:19;4.93;;;3.80;;
47529;SDS011;33272;51.922;7.730;2022-10-22T00:47:50;5.03;;;3.80;;
47529;SDS011;33272;51.922;7.730;2022-10-22T00:50:24;5.20;;;4.40;;
47529;SDS011;33272;51.922;7.730;2022-10-22T00:52:54;4.10;;;3.70;;
47529;SDS011;33272;51.922;7.730;2022-10-22T00:55:23;4.60;;;3.50;;
47529;SDS011;33272;51.922;7.730;2022-10-22T00:57:53;6.10;;;4.73;;
47529;SDS011;33272;51.922;7.730;2022-10-22T01:00:23;6.27;;;3.90;;
47529;SDS011;33272;51.922;7.730;2022-10-22T01:02:51;4.87;;;4.43;;
47529;SDS011;33272;51.922;7.730;2022-10-22T01:05:18;4.83;;;4.07;;
47529;SDS011;33272;51.922;7.730;2022-10-22T01:07:48;6.67;;;4.67;;
47529;SDS011;33272;51.922;7.730;2022-10-22T01:10:22;6.33;;;4.40;;
47529;SDS011;33272;51.922;7.730;2022-10-22T01:13:12;6.03;;;4.67;;
47529;SDS011;33272;51.922;7.730;2022-10-22T01:15:58;6.47;;;4.57;;
47529;SDS011;33272;51.922;7.730;2022-10-22T01:18:36;4.67;;;3.93;;
47529;SDS011;33272;51.922;7.730;2022-10-22T01:21:14;5.43;;;4.30;;
47529;SDS011;33272;51.922;7.730;2022-10-22T01:24:05;5.47;;;4.23;;
47529;SDS011;33272;51.922;7.730;2022-10-22T01:26:59;4.60;;;4.20;;
47529;SDS011;33272;51.922;7.730;2022-10-22T01:29:50;4.93;;;4.37;;
47529;SDS011;33272;51.922;7.730;2022-10-22T01:32:21;4.80;;;4.30;;
47529;SDS011;33272;51.922;7.730;2022-10-22T01:34:53;5.30;;;4.10;;
47529;SDS011;33272;51.922;7.730;2022-10-22T01:37:25;5.03;;;4.57;;
47529;SDS011;33272;51.922;7.730;2022-10-22T01:39:57;5.80;;;4.20;;
47529;SDS011;33272;51.922;7.730;2022-10-22T01:42:26;7.37;;;4.73;;
47529;SDS011;33272;51.922;7.730;2022-10-22T01:44:55;4.40;;;4.00;;
47529;SDS011;33272;51.922;7.730;2022-10-22T01:47:25;4.67;;;4.27;;
47529;SDS011;33272;51.922;7.730;2022-10-22T01:50:16;6.27;;;4.83;;
47529;SDS011;33272;51.922;7.730;2022-10-22T01:53:04;4.63;;;4.23;;
47529;SDS011;33272;51.922;7.730;2022-10-22T01:55:51;5.13;;;4.40;;
47529;SDS011;33272;51.922;7.730;2022-10-22T01:58:33;5.47;;;4.13;;
47529;SDS011;33272;51.922;7.730;2022-10-22T02:01:14;4.57;;;4.00;;
47529;SDS011;33272;51.922;7.730;2022-10-22T02:03:50;4.27;;;3.70;;
47529;SDS011;33272;51.922;7.730;2022-10-22T02:06:26;5.83;;;3.80;;
47529;SDS011;33272;51.922;7.730;2022-10-22T02:08:57;4.50;;;3.70;;
47529;SDS011;33272;51.922;7.730;2022-10-22T02:11:25;4.80;;;3.60;;
47529;SDS011;33272;51.922;7.730;2022-10-22T02:13:53;5.93;;;3.87;;
47529;SDS011;33272;51.922;7.730;2022-10-22T02:16:27;3.97;;;3.57;;
47529;SDS011;33272;51.922;7.730;2022-10-22T02:19:00;4.30;;;3.77;;
47529;SDS011;33272;51.922;7.730;2022-10-22T02:21:43;5.40;;;3.73;;
47529;SDS011;33272;51.922;7.730;2022-10-22T02:24:10;4.60;;;4.20;;
47529;SDS011;33272;51.922;7.730;2022-10-22T02:26:38;4.77;;;4.33;;
47529;SDS011;33272;51.922;7.730;2022-10-22T02:29:11;5.30;;;4.23;;
47529;SDS011;33272;51.922;7.730;2022-10-22T02:31:45;6.20;;;4.10;;
47529;SDS011;33272;51.922;7.730;2022-10-22T02:34:15;4.27;;;3.87;;
47529;SDS011;33272;51.922;7.730;2022-10-22T02:36:47;4.00;;;3.60;;
47529;SDS011;33272;51.922;7.730;2022-10-22T02:39:16;4.47;;;3.50;;
47529;SDS011;33272;51.922;7.730;2022-10-22T02:41:44;4.67;;;4.03;;
47529;SDS011;33272;51.922;7.730;2022-10-22T02:44:12;4.37;;;3.60;;
47529;SDS011;33272;51.922;7.730;2022-10-22T02:46:39;4.00;;;3.57;;
47529;SDS011;33272;51.922;7.730;2022-10-22T02:49:09;3.63;;;3.33;;
47529;SDS011;33272;51.922;7.730;2022-10-22T02:51:36;3.23;;;2.93;;
47529;SDS011;33272;51.922;7.730;2022-10-22T02:54:03;4.87;;;3.67;;
47529;SDS011;33272;51.922;7.730;2022-10-22T02:56:31;4.50;;;3.93;;
47529;SDS011;33272;51.922;7.730;2022-10-22T02:58:58;5.03;;;4.33;;
47529;SDS011;33272;51.922;7.730;2022-10-22T03:01:25;3.77;;;3.10;;
47529;SDS011;33272;51.922;7.730;2022-10-22T03:03:52;3.33;;;3.03;;
47529;SDS011;33272;51.922;7.730;2022-10-22T03:06:20;3.90;;;3.10;;
47529;SDS011;33272;51.922;7.730;2022-10-22T03:08:47;3.43;;;3.13;;
47529;SDS011;33272;51.922;7.730;2022-10-22T03:11:15;3.20;;;2.90;;
47529;SDS011;33272;51.922;7.730;2022-10-22T03:13:42;3.87;;;2.70;;
47529;SDS011;33272;51.922;7.730;2022-10-22T03:16:09;3.80;;;3.40;;
47529;SDS011;33272;51.922;7.730;2022-10-22T03:18:35;5.63;;;3.40;;
47529;SDS011;33272;51.922;7.730;2022-10-22T03:21:05;4.27;;;3.87;;
47529;SDS011;33272;51.922;7.730;2022-10-22T03:23:39;4.50;;;3.07;;
47529;SDS011;33272;51.922;7.730;2022-10-22T03:26:08;3.67;;;3.27;;
47529;SDS011;33272;51.922;7.730;2022-10-22T03:28:37;3.50;;;3.20;;
47529;SDS011;33272;51.922;7.730;2022-10-22T03:31:07;5.23;;;3.40;;
47529;SDS011;33272;51.922;7.730;2022-10-22T03:33:34;5.93;;;3.70;;
47529;SDS011;33272;51.922;7.730;2022-10-22T03:36:01;4.07;;;3.77;;
47529;SDS011;33272;51.922;7.730;2022-10-22T03:38:28;7.23;;;4.03;;
47529;SDS011;33272;51.922;7.730;2022-10-22T03:40:57;5.17;;;3.77;;
47529;SDS011;33272;51.922;7.730;2022-10-22T03:43:24;5.03;;;3.73;;
47529;SDS011;33272;51.922;7.730;2022-10-22T03:45:51;4.90;;;3.70;;
47529;SDS011;33272;51.922;7.730;2022-10-22T03:48:18;3.73;;;3.33;;
47529;SDS011;33272;51.922;7.730;2022-10-22T03:50:45;5.20;;;3.50;;
47529;SDS011;33272;51.922;7.730;2022-10-22T03:53:12;4.00;;;3.60;;
47529;SDS011;33272;51.922;7.730;2022-10-22T03:55:39;4.40;;;3.17;;
47529;SDS011;33272;51.922;7.730;2022-10-22T03:58:08;3.43;;;3.13;;
47529;SDS011;33272;51.922;7.730;2022-10-22T04:00:35;3.70;;;2.93;;
47529;SDS011;33272;51.922;7.730;2022-10-22T04:03:03;2.50;;;2.27;;
47529;SDS011;33272;51.922;7.730;2022-10-22T04:05:30;3.73;;;2.77;;
47529;SDS011;33272;51.922;7.730;2022-10-22T04:07:58;2.87;;;2.57;;
47529;SDS011;33272;51.922;7.730;2022-10-22T04:10:25;2.97;;;2.63;;
47529;SDS011;33272;51.922;7.730;2022-10-22T04:12:52;2.70;;;2.13;;
47529;SDS011;33272;51.922;7.730;2022-10-22T04:15:20;3.10;;;2.50;;
47529;SDS011;33272;51.922;7.730;2022-10-22T04:17:50;3.07;;;2.83;;
47529;SDS011;33272;51.922;7.730;2022-10-22T04:20:17;4.30;;;2.70;;
47529;SDS011;33272;51.922;7.730;2022-10-22T04:22:44;3.83;;;3.13;;
47529;SDS011;33272;51.922;7.730;2022-10-22T04:25:11;4.10;;;3.00;;
47529;SDS011;33272;51.922;7.730;2022-10-22T04:27:38;3.33;;;3.03;;
47529;SDS011;33272;51.922;7.730;2022-10-22T04:30:06;4.13;;;3.47;;
47529;SDS011;33272;51.922;7.730;2022-10-22T04:32:35;4.50;;;4.10;;
47529;SDS011;33272;51.922;7.730;2022-10-22T04:35:03;4.40;;;4.00;;
47529;SDS011;33272;51.922;7.730;2022-10-22T04:37:30;5.93;;;3.73;;
47529;SDS011;33272;51.922;7.730;2022-10-22T04:39:58;5.00;;;3.97;;
47529;SDS011;33272;51.922;7.730;2022-10-22T04:42:25;5.90;;;4.50;;
47529;SDS011;33272;51.922;7.730;2022-10-22T04:44:52;4.23;;;3.77;;
47529;SDS011;33272;51.922;7.730;2022-10-22T04:47:18;8.00;;;5.37;;
47529;SDS011;33272;51.922;7.730;2022-10-22T04:49:47;5.43;;;4.47;;
47529;SDS011;33272;51.922;7.730;2022-10-22T04:52:14;8.60;;;5.40;;
47529;SDS011;33272;51.922;7.730;2022-10-22T04:54:41;8.00;;;5.10;;
47529;SDS011;33272;51.922;7.730;2022-10-22T04:57:08;4.50;;;4.10;;
47529;SDS011;33272;51.922;7.730;2022-10-22T04:59:35;9.20;;;4.80;;
47529;SDS011;33272;51.922;7.730;2022-10-22T05:02:02;7.07;;;4.50;;
47529;SDS011;33272;51.922;7.730;2022-10-22T05:04:29;5.77;;;4.97;;
47529;SDS011;33272;51.922;7.730;2022-10-22T05:06:57;7.93;;;4.00;;
47529;SDS011;33272;51.922;7.730;2022-10-22T05:09:24;6.17;;;4.93;;
47529;SDS011;33272;51.922;7.730;2022-10-22T05:11:52;6.80;;;4.80;;
47529;SDS011;33272;51.922;7.730;2022-10-22T05:14:20;6.67;;;4.90;;
47529;SDS011;33272;51.922;7.730;2022-10-22T05:16:49;7.37;;;5.03;;
47529;SDS011;33272;51.922;7.730;2022-10-22T05:19:17;7.87;;;4.97;;
47529;SDS011;33272;51.922;7.730;2022-10-22T05:21:48;5.67;;;4.33;;
47529;SDS011;33272;51.922;7.730;2022-10-22T05:24:16;5.73;;;5.20;;
47529;SDS011;33272;51.922;7.730;2022-10-22T05:26:43;8.17;;;5.87;;
47529;SDS011;33272;51.922;7.730;2022-10-22T05:29:10;8.27;;;5.57;;
47529;SDS011;33272;51.922;7.730;2022-10-22T05:31:38;7.97;;;5.63;;
47529;SDS011;33272;51.922;7.730;2022-10-22T05:34:05;8.37;;;5.87;;
47529;SDS011;33272;51.922;7.730;2022-10-22T05:36:32;6.40;;;5.53;;
47529;SDS011;33272;51.922;7.730;2022-10-22T05:38:59;8.27;;;5.93;;
47529;SDS011;33272;51.922;7.730;2022-10-22T05:41:27;7.73;;;5.67;;
47529;SDS011;33272;51.922;7.730;2022-10-22T05:43:55;8.40;;;6.17;;
47529;SDS011;33272;51.922;7.730;2022-10-22T05:46:24;8.90;;;6.33;;
47529;SDS011;33272;51.922;7.730;2022-10-22T05:48:54;9.60;;;6.87;;
47529;SDS011;33272;51.922;7.730;2022-10-22T05:51:24;9.53;;;6.57;;
47529;SDS011;33272;51.922;7.730;2022-10-22T05:53:53;8.70;;;6.43;;
47529;SDS011;33272;51.922;7.730;2022-10-22T05:56:22;9.10;;;6.80;;
47529;SDS011;33272;51.922;7.730;2022-10-22T05:58:52;9.07;;;6.67;;
47529;SDS011;33272;51.922;7.730;2022-10-22T06:01:19;7.93;;;6.80;;
47529;SDS011;33272;51.922;7.730;2022-10-22T06:03:48;8.77;;;6.60;;
47529;SDS011;33272;51.922;7.730;2022-10-22T06:06:19;9.23;;;6.77;;
47529;SDS011;33272;51.922;7.730;2022-10-22T06:08:51;9.00;;;7.03;;
47529;SDS011;33272;51.922;7.730;2022-10-22T06:11:20;7.10;;;5.97;;
47529;SDS011;33272;51.922;7.730;2022-10-22T06:13:49;8.07;;;6.40;;
47529;SDS011;33272;51.922;7.730;2022-10-22T06:16:18;10.43;;;6.53;;
47529;SDS011;33272;51.922;7.730;2022-10-22T06:18:45;8.53;;;7.20;;
47529;SDS011;33272;51.922;7.730;2022-10-22T06:21:12;7.23;;;6.00;;
47529;SDS011;33272;51.922;7.730;2022-10-22T06:23:41;10.33;;;7.73;;
47529;SDS011;33272;51.922;7.730;2022-10-22T06:26:08;10.47;;;7.90;;
47529;SDS011;33272;51.922;7.730;2022-10-22T06:28:36;13.10;;;7.90;;
47529;SDS011;33272;51.922;7.730;2022-10-22T06:31:04;13.53;;;8.33;;
47529;SDS011;33272;51.922;7.730;2022-10-22T06:33:32;11.80;;;7.80;;
47529;SDS011;33272;51.922;7.730;2022-10-22T06:36:06;9.27;;;7.13;;
47529;SDS011;33272;51.922;7.730;2022-10-22T06:38:35;8.00;;;6.90;;
47529;SDS011;33272;51.922;7.730;2022-10-22T06:41:03;9.23;;;7.03;;
47529;SDS011;33272;51.922;7.730;2022-10-22T06:43:31;8.97;;;6.93;;
47529;SDS011;33272;51.922;7.730;2022-10-22T06:45:59;11.37;;;7.17;;
47529;SDS011;33272;51.922;7.730;2022-10-22T06:48:26;10.70;;;7.13;;
47529;SDS011;33272;51.922;7.730;2022-10-22T06:50:55;8.13;;;6.93;;
47529;SDS011;33272;51.922;7.730;2022-10-22T06:53:26;9.80;;;7.13;;
47529;SDS011;33272;51.922;7.730;2022-10-22T06:55:54;7.33;;;6.63;;
47529;SDS011;33272;51.922;7.730;2022-10-22T06:58:21;8.90;;;6.83;;
47529;SDS011;33272;51.922;7.730;2022-10-22T07:00:48;9.27;;;6.93;;
47529;SDS011;33272;51.922;7.730;2022-10-22T07:03:15;10.13;;;7.07;;
47529;SDS011;33272;51.922;7.730;2022-10-22T07:05:42;7.87;;;6.60;;
47529;SDS011;33272;51.922;7.730;2022-10-22T07:08:10;9.17;;;6.73;;
47529;SDS011;33272;51.922;7.730;2022-10-22T07:10:37;10.80;;;7.20;;
47529;SDS011;33272;51.922;7.730;2022-10-22T07:13:04;8.50;;;6.53;;
47529;SDS011;33272;51.922;7.730;2022-10-22T07:15:31;10.80;;;7.17;;
47529;SDS011;33272;51.922;7.730;2022-10-22T07:17:58;8.10;;;7.20;;
47529;SDS011;33272;51.922;7.730;2022-10-22T07:20:28;8.73;;;6.97;;
47529;SDS011;33272;51.922;7.730;2022-10-22T07:22:55;8.73;;;7.00;;
47529;SDS011;33272;51.922;7.730;2022-10-22T07:25:24;10.40;;;7.27;;
47529;SDS011;33272;51.922;7.730;2022-10-22T07:27:51;9.37;;;6.70;;
47529;SDS011;33272;51.922;7.730;2022-10-22T07:30:18;9.10;;;7.43;;
47529;SDS011;33272;51.922;7.730;2022-10-22T07:32:44;8.07;;;7.23;;
47529;SDS011;33272;51.922;7.730;2022-10-22T07:35:11;13.57;;;7.43;;
47529;SDS011;33272;51.922;7.730;2022-10-22T07:37:38;9.63;;;7.23;;
47529;SDS011;33272;51.922;7.730;2022-10-22T07:40:06;9.53;;;7.63;;
47529;SDS011;33272;51.922;7.730;2022-10-22T07:42:36;11.37;;;7.17;;
47529;SDS011;33272;51.922;7.730;2022-10-22T07:45:03;9.00;;;7.37;;
47529;SDS011;33272;51.922;7.730;2022-10-22T07:47:30;9.50;;;7.10;;
47529;SDS011;33272;51.922;7.730;2022-10-22T07:49:58;9.17;;;7.13;;
47529;SDS011;33272;51.922;7.730;2022-10-22T07:52:25;10.60;;;6.93;;
47529;SDS011;33272;51.922;7.730;2022-10-22T07:54:53;8.57;;;6.57;;
47529;SDS011;33272;51.922;7.730;2022-10-22T07:57:20;8.77;;;7.00;;
47529;SDS011;33272;51.922;7.730;2022-10-22T07:59:48;9.53;;;7.20;;
47529;SDS011;33272;51.922;7.730;2022-10-22T08:02:15;9.97;;;7.83;;
47529;SDS011;33272;51.922;7.730;2022-10-22T08:04:42;10.13;;;7.07;;
47529;SDS011;33272;51.922;7.730;2022-10-22T08:07:09;9.23;;;7.30;;
47529;SDS011;33272;51.922;7.730;2022-10-22T08:09:36;8.87;;;7.37;;
47529;SDS011;33272;51.922;7.730;2022-10-22T08:12:03;8.23;;;7.40;;
47529;SDS011;33272;51.922;7.730;2022-10-22T08:14:31;10.87;;;7.23;;
47529;SDS011;33272;51.922;7.730;2022-10-22T08:16:59;9.33;;;7.30;;
47529;SDS011;33272;51.922;7.730;2022-10-22T08:19:26;10.57;;;7.03;;
47529;SDS011;33272;51.922;7.730;2022-10-22T08:21:56;6.97;;;6.23;;
47529;SDS011;33272;51.922;7.730;2022-10-22T08:24:23;9.17;;;6.30;;
47529;SDS011;33272;51.922;7.730;2022-10-22T08:26:51;7.00;;;5.83;;
47529;SDS011;33272;51.922;7.730;2022-10-22T08:29:18;10.17;;;6.33;;
47529;SDS011;33272;51.922;7.730;2022-10-22T08:31:46;9.10;;;6.20;;
47529;SDS011;33272;51.922;7.730;2022-10-22T08:34:16;7.90;;;6.10;;
47529;SDS011;33272;51.922;7.730;2022-10-22T08:36:43;8.63;;;5.90;;
47529;SDS011;33272;51.922;7.730;2022-10-22T08:39:11;8.57;;;5.97;;
47529;SDS011;33272;51.922;7.730;2022-10-22T08:41:40;6.20;;;5.40;;
47529;SDS011;33272;51.922;7.730;2022-10-22T08:44:34;7.80;;;5.23;;
47529;SDS011;33272;51.922;7.730;2022-10-22T08:47:21;7.00;;;4.80;;
47529;SDS011;33272;51.922;7.730;2022-10-22T08:50:11;9.20;;;4.80;;
47529;SDS011;33272;51.922;7.730;2022-10-22T08:52:43;8.83;;;4.17;;
47529;SDS011;33272;51.922;7.730;2022-10-22T08:55:14;5.53;;;4.30;;
47529;SDS011;33272;51.922;7.730;2022-10-22T08:57:45;7.83;;;4.47;;
47529;SDS011;33272;51.922;7.730;2022-10-22T09:00:18;7.37;;;4.33;;
47529;SDS011;33272;51.922;7.730;2022-10-22T09:02:53;7.20;;;4.30;;
47529;SDS011;33272;51.922;7.730;2022-10-22T09:05:34;6.37;;;4.20;;
47529;SDS011;33272;51.922;7.730;2022-10-22T09:08:14;9.13;;;4.00;;
47529;SDS011;33272;51.922;7.730;2022-10-22T09:10:45;6.90;;;4.30;;
47529;SDS011;33272;51.922;7.730;2022-10-22T09:13:17;6.87;;;3.80;;
47529;SDS011;33272;51.922;7.730;2022-10-22T09:15:47;6.30;;;4.50;;
47529;SDS011;33272;51.922;7.730;2022-10-22T09:18:23;5.60;;;3.43;;
47529;SDS011;33272;51.922;7.730;2022-10-22T09:21:04;7.33;;;3.63;;
47529;SDS011;33272;51.922;7.730;2022-10-22T09:23:47;5.70;;;3.53;;
47529;SDS011;33272;51.922;7.730;2022-10-22T09:26:25;7.50;;;3.50;;
47529;SDS011;33272;51.922;7.730;2022-10-22T09:28:52;8.77;;;3.17;;
47529;SDS011;33272;51.922;7.730;2022-10-22T09:31:19;6.97;;;3.30;;
47529;SDS011;33272;51.922;7.730;2022-10-22T09:33:49;4.40;;;2.87;;
47529;SDS011;33272;51.922;7.730;2022-10-22T09:36:19;8.13;;;3.03;;
47529;SDS011;33272;51.922;7.730;2022-10-22T09:38:49;3.03;;;2.50;;
47529;SDS011;33272;51.922;7.730;2022-10-22T09:41:19;6.00;;;3.20;;
47529;SDS011;33272;51.922;7.730;2022-10-22T09:43:53;4.70;;;2.60;;
47529;SDS011;33272;51.922;7.730;2022-10-22T09:46:21;8.67;;;3.33;;
47529;SDS011;33272;51.922;7.730;2022-10-22T09:48:56;11.13;;;2.90;;
47529;SDS011;33272;51.922;7.730;2022-10-22T09:51:36;8.03;;;3.17;;
47529;SDS011;33272;51.922;7.730;2022-10-22T09:54:15;5.70;;;2.90;;
47529;SDS011;33272;51.922;7.730;2022-10-22T09:56:53;4.67;;;2.53;;
47529;SDS011;33272;51.922;7.730;2022-10-22T09:59:26;8.33;;;2.93;;
47529;SDS011;33272;51.922;7.730;2022-10-22T10:01:57;6.97;;;3.17;;
47529;SDS011;33272;51.922;7.730;2022-10-22T10:04:27;7.10;;;2.40;;
47529;SDS011;33272;51.922;7.730;2022-10-22T10:07:00;7.50;;;3.10;;
47529;SDS011;33272;51.922;7.730;2022-10-22T10:09:28;6.00;;;2.80;;
47529;SDS011;33272;51.922;7.730;2022-10-22T10:12:02;6.77;;;2.47;;
47529;SDS011;33272;51.922;7.730;2022-10-22T10:14:42;7.47;;;2.97;;
47529;SDS011;33272;51.922;7.730;2022-10-22T10:17:20;5.60;;;2.90;;
47529;SDS011;33272;51.922;7.730;2022-10-22T10:20:00;4.77;;;2.00;;
47529;SDS011;33272;51.922;7.730;2022-10-22T10:22:45;6.30;;;2.10;;
47529;SDS011;33272;51.922;7.730;2022-10-22T10:25:25;6.37;;;2.53;;
47529;SDS011;33272;51.922;7.730;2022-10-22T10:28:05;5.73;;;2.37;;
47529;SDS011;33272;51.922;7.730;2022-10-22T10:30:55;3.97;;;2.50;;
47529;SDS011;33272;51.922;7.730;2022-10-22T10:33:37;5.53;;;2.17;;
47529;SDS011;33272;51.922;7.730;2022-10-22T10:36:18;6.80;;;2.57;;
47529;SDS011;33272;51.922;7.730;2022-10-22T10:38:59;6.53;;;2.33;;
47529;SDS011;33272;51.922;7.730;2022-10-22T10:41:37;5.47;;;2.03;;
47529;SDS011;33272;51.922;7.730;2022-10-22T10:44:21;10.40;;;2.63;;
47529;SDS011;33272;51.922;7.730;2022-10-22T10:47:18;11.27;;;2.30;;
47529;SDS011;33272;51.922;7.730;2022-10-22T10:50:00;4.63;;;2.40;;
47529;SDS011;33272;51.922;7.730;2022-10-22T10:52:46;6.77;;;2.20;;
47529;SDS011;33272;51.922;7.730;2022-10-22T10:55:27;7.33;;;2.53;;
47529;SDS011;33272;51.922;7.730;2022-10-22T10:58:01;3.67;;;2.10;;
47529;SDS011;33272;51.922;7.730;2022-10-22T11:00:40;5.30;;;2.27;;
47529;SDS011;33272;51.922;7.730;2022-10-22T11:03:32;5.53;;;2.33;;
47529;SDS011;33272;51.922;7.730;2022-10-22T11:06:11;4.17;;;2.07;;
47529;SDS011;33272;51.922;7.730;2022-10-22T11:08:41;5.03;;;2.43;;
47529;SDS011;33272;51.922;7.730;2022-10-22T11:11:20;5.83;;;2.73;;
47529;SDS011;33272;51.922;7.730;2022-10-22T11:13:56;3.47;;;1.70;;
47529;SDS011;33272;51.922;7.730;2022-10-22T11:16:34;6.90;;;2.23;;
47529;SDS011;33272;51.922;7.730;2022-10-22T11:19:10;4.37;;;2.23;;
47529;SDS011;33272;51.922;7.730;2022-10-22T11:21:46;6.77;;;2.07;;
47529;SDS011;33272;51.922;7.730;2022-10-22T11:24:21;3.73;;;2.00;;
47529;SDS011;33272;51.922;7.730;2022-10-22T11:26:56;6.33;;;2.53;;
47529;SDS011;33272;51.922;7.730;2022-10-22T11:29:31;4.30;;;1.60;;
47529;SDS011;33272;51.922;7.730;2022-10-22T11:32:04;5.77;;;1.97;;
47529;SDS011;33272;51.922;7.730;2022-10-22T11:34:39;4.57;;;1.70;;
47529;SDS011;33272;51.922;7.730;2022-10-22T11:37:10;3.53;;;1.70;;
47529;SDS011;33272;51.922;7.730;2022-10-22T11:39:42;3.97;;;1.83;;
47529;SDS011;33272;51.922;7.730;2022-10-22T11:42:18;4.73;;;1.60;;
47529;SDS011;33272;51.922;7.730;2022-10-22T11:44:47;8.83;;;1.90;;
47529;SDS011;33272;51.922;7.730;2022-10-22T11:47:26;5.80;;;1.97;;
47529;SDS011;33272;51.922;7.730;2022-10-22T11:49:58;8.07;;;1.87;;
47529;SDS011;33272;51.922;7.730;2022-10-22T11:52:52;4.60;;;1.77;;
47529;SDS011;33272;51.922;7.730;2022-10-22T11:55:33;3.90;;;1.87;;
47529;SDS011;33272;51.922;7.730;2022-10-22T12:01:23;4.23;;;1.80;;
47529;SDS011;33272;51.922;7.730;2022-10-22T12:06:54;4.30;;;1.90;;
47529;SDS011;33272;51.922;7.730;2022-10-22T12:09:26;2.03;;;1.80;;
47529;SDS011;33272;51.922;7.730;2022-10-22T12:12:00;5.60;;;2.00;;
47529;SDS011;33272;51.922;7.730;2022-10-22T12:14:49;7.47;;;2.67;;
47529;SDS011;33272;51.922;7.730;2022-10-22T12:17:19;7.03;;;2.57;;
47529;SDS011;33272;51.922;7.730;2022-10-22T12:19:48;4.50;;;1.90;;
47529;SDS011;33272;51.922;7.730;2022-10-22T12:22:20;3.70;;;1.80;;
47529;SDS011;33272;51.922;7.730;2022-10-22T12:24:53;5.17;;;2.33;;
47529;SDS011;33272;51.922;7.730;2022-10-22T12:27:25;7.27;;;2.83;;
47529;SDS011;33272;51.922;7.730;2022-10-22T12:30:00;4.50;;;1.90;;
47529;SDS011;33272;51.922;7.730;2022-10-22T12:32:41;7.40;;;2.30;;
47529;SDS011;33272;51.922;7.730;2022-10-22T12:35:10;6.10;;;2.53;;
47529;SDS011;33272;51.922;7.730;2022-10-22T12:37:48;6.47;;;2.27;;
47529;SDS011;33272;51.922;7.730;2022-10-22T12:40:18;3.90;;;2.77;;
47529;SDS011;33272;51.922;7.730;2022-10-22T12:42:49;11.13;;;3.00;;
47529;SDS011;33272;51.922;7.730;2022-10-22T12:45:20;6.90;;;2.30;;
47529;SDS011;33272;51.922;7.730;2022-10-22T12:47:51;9.53;;;3.13;;
47529;SDS011;33272;51.922;7.730;2022-10-22T12:50:24;6.20;;;2.93;;
47529;SDS011;33272;51.922;7.730;2022-10-22T12:53:01;5.30;;;2.70;;
47529;SDS011;33272;51.922;7.730;2022-10-22T12:55:30;5.73;;;2.97;;
47529;SDS011;33272;51.922;7.730;2022-10-22T12:57:58;4.33;;;3.03;;
47529;SDS011;33272;51.922;7.730;2022-10-22T13:00:31;5.23;;;2.50;;
47529;SDS011;33272;51.922;7.730;2022-10-22T13:03:03;5.87;;;2.70;;
47529;SDS011;33272;51.922;7.730;2022-10-22T13:05:32;4.97;;;2.50;;
47529;SDS011;33272;51.922;7.730;2022-10-22T13:08:04;7.77;;;3.03;;
47529;SDS011;33272;51.922;7.730;2022-10-22T13:10:35;4.43;;;2.60;;
47529;SDS011;33272;51.922;7.730;2022-10-22T13:13:04;5.10;;;2.60;;
47529;SDS011;33272;51.922;7.730;2022-10-22T13:15:35;5.57;;;3.30;;
47529;SDS011;33272;51.922;7.730;2022-10-22T13:18:06;7.47;;;2.87;;
47529;SDS011;33272;51.922;7.730;2022-10-22T13:20:49;7.87;;;2.97;;
47529;SDS011;33272;51.922;7.730;2022-10-22T13:23:19;6.63;;;3.13;;
47529;SDS011;33272;51.922;7.730;2022-10-22T13:25:56;6.33;;;3.10;;
47529;SDS011;33272;51.922;7.730;2022-10-22T13:28:25;7.63;;;3.37;;
47529;SDS011;33272;51.922;7.730;2022-10-22T13:30:55;6.70;;;3.30;;
47529;SDS011;33272;51.922;7.730;2022-10-22T13:33:25;4.77;;;2.80;;
47529;SDS011;33272;51.922;7.730;2022-10-22T13:35:57;9.57;;;3.80;;
47529;SDS011;33272;51.922;7.730;2022-10-22T13:38:25;8.00;;;3.57;;
47529;SDS011;33272;51.922;7.730;2022-10-22T13:40:54;5.43;;;3.30;;
47529;SDS011;33272;51.922;7.730;2022-10-22T13:43:21;5.93;;;3.13;;
47529;SDS011;33272;51.922;7.730;2022-10-22T13:45:51;5.90;;;3.97;;
47529;SDS011;33272;51.922;7.730;2022-10-22T13:48:24;5.53;;;3.10;;
47529;SDS011;33272;51.922;7.730;2022-10-22T13:50:54;3.13;;;2.50;;
47529;SDS011;33272;51.922;7.730;2022-10-22T13:53:21;4.53;;;3.13;;
47529;SDS011;33272;51.922;7.730;2022-10-22T13:55:51;5.90;;;2.30;;
47529;SDS011;33272;51.922;7.730;2022-10-22T13:58:20;5.53;;;2.67;;
47529;SDS011;33272;51.922;7.730;2022-10-22T14:00:49;6.80;;;2.60;;
47529;SDS011;33272;51.922;7.730;2022-10-22T14:03:22;7.03;;;2.30;;
47529;SDS011;33272;51.922;7.730;2022-10-22T14:05:54;5.13;;;2.40;;
47529;SDS011;33272;51.922;7.730;2022-10-22T14:08:21;3.03;;;1.70;;
47529;SDS011;33272;51.922;7.730;2022-10-22T14:10:50;4.93;;;1.90;;
47529;SDS011;33272;51.922;7.730;2022-10-22T14:13:18;4.93;;;2.30;;
47529;SDS011;33272;51.922;7.730;2022-10-22T14:15:47;5.00;;;2.10;;
47529;SDS011;33272;51.922;7.730;2022-10-22T14:18:24;4.33;;;2.07;;
47529;SDS011;33272;51.922;7.730;2022-10-22T14:20:55;4.37;;;2.30;;
47529;SDS011;33272;51.922;7.730;2022-10-22T14:23:26;4.50;;;2.10;;
47529;SDS011;33272;51.922;7.730;2022-10-22T14:25:55;5.40;;;2.40;;
47529;SDS011;33272;51.922;7.730;2022-10-22T14:28:22;4.23;;;2.10;;
47529;SDS011;33272;51.922;7.730;2022-10-22T14:30:50;7.87;;;2.43;;
47529;SDS011;33272;51.922;7.730;2022-10-22T14:33:18;7.60;;;2.53;;
47529;SDS011;33272;51.922;7.730;2022-10-22T14:35:50;4.53;;;2.37;;
47529;SDS011;33272;51.922;7.730;2022-10-22T14:38:17;4.93;;;2.10;;
47529;SDS011;33272;51.922;7.730;2022-10-22T14:40:44;4.77;;;2.33;;
47529;SDS011;33272;51.922;7.730;2022-10-22T14:43:13;3.77;;;2.17;;
47529;SDS011;33272;51.922;7.730;2022-10-22T14:45:45;6.03;;;2.40;;
47529;SDS011;33272;51.922;7.730;2022-10-22T14:48:12;4.63;;;2.77;;
47529;SDS011;33272;51.922;7.730;2022-10-22T14:50:40;6.07;;;2.57;;
47529;SDS011;33272;51.922;7.730;2022-10-22T14:53:09;5.87;;;3.27;;
47529;SDS011;33272;51.922;7.730;2022-10-22T14:55:37;6.33;;;2.77;;
47529;SDS011;33272;51.922;7.730;2022-10-22T14:58:05;7.30;;;3.27;;
47529;SDS011;33272;51.922;7.730;2022-10-22T15:00:32;6.87;;;3.00;;
47529;SDS011;33272;51.922;7.730;2022-10-22T15:03:00;3.83;;;2.57;;
47529;SDS011;33272;51.922;7.730;2022-10-22T15:05:28;8.43;;;2.80;;
47529;SDS011;33272;51.922;7.730;2022-10-22T15:07:55;5.50;;;2.50;;
47529;SDS011;33272;51.922;7.730;2022-10-22T15:10:24;7.00;;;2.33;;
47529;SDS011;33272;51.922;7.730;2022-10-22T15:12:51;6.07;;;2.23;;
47529;SDS011;33272;51.922;7.730;2022-10-22T15:15:18;5.70;;;2.30;;
47529;SDS011;33272;51.922;7.730;2022-10-22T15:17:45;3.77;;;2.30;;